sensor_id;sensor_type;location;lat;lon;timestamp;pressure;altitude;pressure_sealevel;temperature;humidity
50933;BME280;36921;49.006;9.292;2023-05-19T00:00:22;99264.22;;;9.15;100.00
50933;BME280;36921;49.006;9.292;2023-05-19T00:02:49;99265.34;;;9.21;100.00
50933;BME280;36921;49.006;9.292;2023-05-19T00:05:15;99246.53;;;9.13;100.00
50933;BME280;36921;49.006;9.292;2023-05-19T00:07:42;99269.66;;;9.30;100.00
50933;BME280;36921;49.006;9.292;2023-05-19T00:10:09;99267.00;;;9.22;100.00
50933;BME280;36921;49.006;9.292;2023-05-19T00:12:35;99270.28;;;9.17;100.00
50933;BME280;36921;49.006;9.292;2023-05-19T00:15:01;99256.94;;;9.16;100.00
50933;BME280;36921;49.006;9.292;2023-05-19T00:17:26;99265.34;;;9.21;100.00
50933;BME280;36921;49.006;9.292;2023-05-19T00:19:52;99262.34;;;9.16;100.00
50933;BME280;36921;49.006;9.292;2023-05-19T00:22:18;99268.88;;;9.21;100.00
50933;BME280;36921;49.006;9.292;2023-05-19T00:24:44;99250.59;;;9.09;100.00
50933;BME280;36921;49.006;9.292;2023-05-19T00:27:09;99257.59;;;9.18;100.00
50933;BME280;36921;49.006;9.292;2023-05-19T00:29:35;99251.25;;;9.11;100.00
50933;BME280;36921;49.006;9.292;2023-05-19T00:32:00;99248.63;;;9.03;100.00
50933;BME280;36921;49.006;9.292;2023-05-19T00:34:25;99257.78;;;9.16;100.00
50933;BME280;36921;49.006;9.292;2023-05-19T00:36:50;99252.84;;;9.05;100.00
50933;BME280;36921;49.006;9.292;2023-05-19T00:39:16;99218.44;;;8.84;100.00
50933;BME280;36921;49.006;9.292;2023-05-19T00:41:41;99237.56;;;8.97;100.00
50933;BME280;36921;49.006;9.292;2023-05-19T00:44:06;99246.19;;;8.93;100.00
50933;BME280;36921;49.006;9.292;2023-05-19T00:46:32;99253.38;;;9.00;100.00
50933;BME280;36921;49.006;9.292;2023-05-19T00:48:57;99203.00;;;8.78;100.00
50933;BME280;36921;49.006;9.292;2023-05-19T00:51:25;99232.16;;;8.97;100.00
50933;BME280;36921;49.006;9.292;2023-05-19T00:53:51;99243.59;;;8.99;100.00
50933;BME280;36921;49.006;9.292;2023-05-19T00:56:17;99228.63;;;8.97;100.00
50933;BME280;36921;49.006;9.292;2023-05-19T00:58:43;99246.69;;;9.11;100.00
50933;BME280;36921;49.006;9.292;2023-05-19T01:01:09;99236.34;;;9.00;100.00
50933;BME280;36921;49.006;9.292;2023-05-19T01:03:36;99224.22;;;8.96;100.00
50933;BME280;36921;49.006;9.292;2023-05-19T01:06:04;99229.38;;;8.91;100.00
50933;BME280;36921;49.006;9.292;2023-05-19T01:08:31;99245.66;;;8.97;100.00
50933;BME280;36921;49.006;9.292;2023-05-19T01:10:57;99219.66;;;8.82;100.00
50933;BME280;36921;49.006;9.292;2023-05-19T01:13:22;99219.81;;;8.80;100.00
50933;BME280;36921;49.006;9.292;2023-05-19T01:18:57;99237.09;;;8.94;100.00
50933;BME280;36921;49.006;9.292;2023-05-19T01:32:33;99249.72;;;9.31;100.00
50933;BME280;36921;49.006;9.292;2023-05-19T01:35:01;99240.59;;;9.32;100.00
50933;BME280;36921;49.006;9.292;2023-05-19T01:37:28;99240.06;;;9.52;100.00
50933;BME280;36921;49.006;9.292;2023-05-19T01:39:54;99250.00;;;9.66;100.00
50933;BME280;36921;49.006;9.292;2023-05-19T01:42:21;99226.00;;;9.56;100.00
50933;BME280;36921;49.006;9.292;2023-05-19T01:44:47;99229.16;;;9.60;100.00
50933;BME280;36921;49.006;9.292;2023-05-19T01:47:13;99224.88;;;9.65;100.00
50933;BME280;36921;49.006;9.292;2023-05-19T01:49:39;99234.56;;;9.75;100.00
50933;BME280;36921;49.006;9.292;2023-05-19T01:52:05;99228.69;;;9.71;100.00
50933;BME280;36921;49.006;9.292;2023-05-19T01:54:30;99239.94;;;9.90;100.00
50933;BME280;36921;49.006;9.292;2023-05-19T02:05:38;99253.44;;;10.04;100.00
50933;BME280;36921;49.006;9.292;2023-05-19T02:08:21;99257.63;;;10.07;100.00
50933;BME280;36921;49.006;9.292;2023-05-19T02:10:59;99259.13;;;10.09;100.00
50933;BME280;36921;49.006;9.292;2023-05-19T02:13:33;99254.53;;;10.10;100.00
50933;BME280;36921;49.006;9.292;2023-05-19T02:16:03;99240.69;;;9.98;100.00
50933;BME280;36921;49.006;9.292;2023-05-19T02:18:33;99257.19;;;10.03;100.00
50933;BME280;36921;49.006;9.292;2023-05-19T02:21:00;99251.94;;;10.02;100.00
50933;BME280;36921;49.006;9.292;2023-05-19T02:23:25;99230.00;;;9.75;100.00
50933;BME280;36921;49.006;9.292;2023-05-19T02:25:50;99265.41;;;9.80;100.00
50933;BME280;36921;49.006;9.292;2023-05-19T02:28:16;99224.22;;;9.49;100.00
50933;BME280;36921;49.006;9.292;2023-05-19T02:30:41;99263.91;;;9.63;100.00
50933;BME280;36921;49.006;9.292;2023-05-19T02:33:06;99225.31;;;9.39;100.00
50933;BME280;36921;49.006;9.292;2023-05-19T02:35:32;99228.78;;;9.33;100.00
50933;BME280;36921;49.006;9.292;2023-05-19T02:37:58;99235.19;;;9.32;100.00
50933;BME280;36921;49.006;9.292;2023-05-19T02:40:23;99250.28;;;9.41;100.00
50933;BME280;36921;49.006;9.292;2023-05-19T02:42:48;99253.44;;;9.30;100.00
50933;BME280;36921;49.006;9.292;2023-05-19T02:45:14;99223.59;;;9.09;100.00
50933;BME280;36921;49.006;9.292;2023-05-19T02:47:39;99245.16;;;9.17;100.00
50933;BME280;36921;49.006;9.292;2023-05-19T02:50:06;99230.88;;;9.08;100.00
50933;BME280;36921;49.006;9.292;2023-05-19T02:52:31;99238.25;;;9.14;100.00
50933;BME280;36921;49.006;9.292;2023-05-19T02:54:57;99244.28;;;9.16;100.00
50933;BME280;36921;49.006;9.292;2023-05-19T02:57:22;99234.06;;;9.12;100.00
50933;BME280;36921;49.006;9.292;2023-05-19T02:59:48;99237.75;;;9.11;100.00
50933;BME280;36921;49.006;9.292;2023-05-19T03:02:13;99216.50;;;8.93;100.00
50933;BME280;36921;49.006;9.292;2023-05-19T03:04:38;99219.78;;;8.88;100.00
50933;BME280;36921;49.006;9.292;2023-05-19T03:07:07;99244.97;;;8.95;100.00
50933;BME280;36921;49.006;9.292;2023-05-19T03:09:37;99223.84;;;8.84;100.00
50933;BME280;36921;49.006;9.292;2023-05-19T03:12:02;99251.19;;;8.81;100.00
50933;BME280;36921;49.006;9.292;2023-05-19T03:14:29;99234.09;;;8.66;100.00
50933;BME280;36921;49.006;9.292;2023-05-19T03:16:54;99231.47;;;8.58;100.00
50933;BME280;36921;49.006;9.292;2023-05-19T03:19:20;99233.41;;;8.49;100.00
50933;BME280;36921;49.006;9.292;2023-05-19T03:21:45;99234.28;;;8.41;100.00
50933;BME280;36921;49.006;9.292;2023-05-19T03:24:11;99251.09;;;8.43;100.00
50933;BME280;36921;49.006;9.292;2023-05-19T03:26:37;99245.44;;;8.30;100.00
50933;BME280;36921;49.006;9.292;2023-05-19T03:29:02;99240.09;;;8.22;100.00
50933;BME280;36921;49.006;9.292;2023-05-19T03:31:27;99228.53;;;8.13;100.00
50933;BME280;36921;49.006;9.292;2023-05-19T03:33:54;99235.13;;;8.10;100.00
50933;BME280;36921;49.006;9.292;2023-05-19T03:36:22;99248.91;;;8.16;100.00
50933;BME280;36921;49.006;9.292;2023-05-19T03:38:47;99234.84;;;7.97;100.00
50933;BME280;36921;49.006;9.292;2023-05-19T03:41:13;99257.03;;;8.07;100.00
50933;BME280;36921;49.006;9.292;2023-05-19T03:43:38;99234.84;;;7.97;100.00
50933;BME280;36921;49.006;9.292;2023-05-19T03:46:03;99252.63;;;8.06;100.00
50933;BME280;36921;49.006;9.292;2023-05-19T03:48:28;99257.22;;;7.98;100.00
50933;BME280;36921;49.006;9.292;2023-05-19T03:50:54;99216.94;;;7.73;100.00
50933;BME280;36921;49.006;9.292;2023-05-19T03:53:19;99233.06;;;7.81;100.00
50933;BME280;36921;49.006;9.292;2023-05-19T03:55:45;99239.97;;;7.84;100.00
50933;BME280;36921;49.006;9.292;2023-05-19T03:58:11;99246.03;;;7.86;100.00
50933;BME280;36921;49.006;9.292;2023-05-19T04:00:38;99256.41;;;7.97;100.00
50933;BME280;36921;49.006;9.292;2023-05-19T04:03:04;99260.59;;;8.00;100.00
50933;BME280;36921;49.006;9.292;2023-05-19T04:05:29;99260.72;;;8.06;100.00
50933;BME280;36921;49.006;9.292;2023-05-19T04:07:55;99268.28;;;8.11;100.00
50933;BME280;36921;49.006;9.292;2023-05-19T04:10:20;99247.78;;;8.02;100.00
50933;BME280;36921;49.006;9.292;2023-05-19T04:12:46;99274.66;;;8.18;100.00
50933;BME280;36921;49.006;9.292;2023-05-19T04:15:12;99242.47;;;8.17;100.00
50933;BME280;36921;49.006;9.292;2023-05-19T04:17:38;99255.59;;;8.20;100.00
50933;BME280;36921;49.006;9.292;2023-05-19T04:20:04;99244.59;;;8.29;100.00
50933;BME280;36921;49.006;9.292;2023-05-19T04:22:30;99249.28;;;8.35;100.00
50933;BME280;36921;49.006;9.292;2023-05-19T04:24:56;99261.38;;;8.48;100.00
50933;BME280;36921;49.006;9.292;2023-05-19T04:27:22;99258.44;;;8.58;100.00
50933;BME280;36921;49.006;9.292;2023-05-19T04:29:47;99258.69;;;8.71;100.00
50933;BME280;36921;49.006;9.292;2023-05-19T04:32:14;99243.16;;;8.73;100.00
50933;BME280;36921;49.006;9.292;2023-05-19T04:34:42;99275.78;;;9.01;100.00
50933;BME280;36921;49.006;9.292;2023-05-19T04:37:10;99259.06;;;9.06;100.00
50933;BME280;36921;49.006;9.292;2023-05-19T04:39:36;99270.13;;;9.34;100.00
50933;BME280;36921;49.006;9.292;2023-05-19T04:42:07;99251.75;;;9.29;100.00
50933;BME280;36921;49.006;9.292;2023-05-19T04:44:33;99247.03;;;9.46;100.00
50933;BME280;36921;49.006;9.292;2023-05-19T04:46:58;99239.78;;;9.47;100.00
50933;BME280;36921;49.006;9.292;2023-05-19T04:49:24;99252.25;;;9.77;100.00
50933;BME280;36921;49.006;9.292;2023-05-19T04:51:49;99266.03;;;9.97;100.00
50933;BME280;36921;49.006;9.292;2023-05-19T04:54:15;99244.41;;;9.97;100.00
50933;BME280;36921;49.006;9.292;2023-05-19T04:56:40;99242.13;;;10.16;100.00
50933;BME280;36921;49.006;9.292;2023-05-19T04:59:07;99272.88;;;10.44;100.00
50933;BME280;36921;49.006;9.292;2023-05-19T05:01:34;99238.25;;;10.40;100.00
50933;BME280;36921;49.006;9.292;2023-05-19T05:03:59;99249.22;;;10.53;100.00
50933;BME280;36921;49.006;9.292;2023-05-19T05:06:26;99249.94;;;10.83;100.00
50933;BME280;36921;49.006;9.292;2023-05-19T05:08:52;99247.72;;;11.15;100.00
50933;BME280;36921;49.006;9.292;2023-05-19T05:11:18;99248.28;;;11.32;100.00
50933;BME280;36921;49.006;9.292;2023-05-19T05:13:43;99222.53;;;11.49;100.00
50933;BME280;36921;49.006;9.292;2023-05-19T05:16:09;99252.66;;;11.96;100.00
50933;BME280;36921;49.006;9.292;2023-05-19T05:18:35;99261.34;;;12.33;100.00
50933;BME280;36921;49.006;9.292;2023-05-19T05:21:03;99268.50;;;12.47;100.00
50933;BME280;36921;49.006;9.292;2023-05-19T05:23:28;99235.97;;;12.60;100.00
50933;BME280;36921;49.006;9.292;2023-05-19T05:25:54;99238.50;;;12.82;100.00
50933;BME280;36921;49.006;9.292;2023-05-19T05:28:20;99223.66;;;12.58;100.00
50933;BME280;36921;49.006;9.292;2023-05-19T05:30:59;99232.66;;;13.11;100.00
50933;BME280;36921;49.006;9.292;2023-05-19T05:33:32;99252.31;;;13.33;100.00
50933;BME280;36921;49.006;9.292;2023-05-19T05:35:57;99260.69;;;13.45;100.00
50933;BME280;36921;49.006;9.292;2023-05-19T05:38:22;99250.91;;;14.09;100.00
50933;BME280;36921;49.006;9.292;2023-05-19T05:40:48;99244.50;;;14.42;100.00
50933;BME280;36921;49.006;9.292;2023-05-19T05:43:13;99222.06;;;14.46;100.00
50933;BME280;36921;49.006;9.292;2023-05-19T05:45:38;99249.38;;;14.72;100.00
50933;BME280;36921;49.006;9.292;2023-05-19T05:48:04;99240.06;;;14.47;100.00
50933;BME280;36921;49.006;9.292;2023-05-19T05:50:29;99241.94;;;14.85;100.00
50933;BME280;36921;49.006;9.292;2023-05-19T05:52:56;99234.81;;;14.53;100.00
50933;BME280;36921;49.006;9.292;2023-05-19T05:55:22;99234.00;;;14.84;100.00
50933;BME280;36921;49.006;9.292;2023-05-19T05:57:48;99230.56;;;14.95;100.00
50933;BME280;36921;49.006;9.292;2023-05-19T06:00:15;99250.16;;;15.36;100.00
50933;BME280;36921;49.006;9.292;2023-05-19T06:02:48;99245.06;;;15.39;100.00
50933;BME280;36921;49.006;9.292;2023-05-19T06:05:14;99230.53;;;15.45;100.00
50933;BME280;36921;49.006;9.292;2023-05-19T06:07:40;99234.56;;;15.61;100.00
50933;BME280;36921;49.006;9.292;2023-05-19T06:10:06;99247.53;;;15.91;100.00
50933;BME280;36921;49.006;9.292;2023-05-19T06:12:33;99238.72;;;16.07;100.00
50933;BME280;36921;49.006;9.292;2023-05-19T06:14:58;99230.84;;;15.99;96.29
50933;BME280;36921;49.006;9.292;2023-05-19T06:17:24;99231.19;;;16.21;91.36
50933;BME280;36921;49.006;9.292;2023-05-19T06:19:49;99223.88;;;16.63;88.58
50933;BME280;36921;49.006;9.292;2023-05-19T06:22:14;99213.22;;;17.04;84.55
50933;BME280;36921;49.006;9.292;2023-05-19T06:24:40;99244.38;;;17.15;82.16
50933;BME280;36921;49.006;9.292;2023-05-19T06:27:05;99215.88;;;17.46;78.98
50933;BME280;36921;49.006;9.292;2023-05-19T06:29:31;99209.81;;;17.32;77.25
50933;BME280;36921;49.006;9.292;2023-05-19T06:31:56;99228.28;;;16.95;76.86
50933;BME280;36921;49.006;9.292;2023-05-19T06:34:21;99223.13;;;18.28;75.24
50933;BME280;36921;49.006;9.292;2023-05-19T06:36:46;99222.50;;;19.12;68.12
50933;BME280;36921;49.006;9.292;2023-05-19T06:39:12;99234.03;;;20.03;67.16
50933;BME280;36921;49.006;9.292;2023-05-19T06:41:37;99212.44;;;20.56;62.79
50933;BME280;36921;49.006;9.292;2023-05-19T06:44:03;99216.59;;;19.20;65.27
50933;BME280;36921;49.006;9.292;2023-05-19T06:46:29;99232.50;;;18.03;68.00
50933;BME280;36921;49.006;9.292;2023-05-19T06:48:55;99220.13;;;17.65;69.80
50933;BME280;36921;49.006;9.292;2023-05-19T06:51:20;99239.00;;;16.96;72.99
50933;BME280;36921;49.006;9.292;2023-05-19T06:53:49;99225.94;;;16.98;73.19
50933;BME280;36921;49.006;9.292;2023-05-19T06:56:14;99229.88;;;17.14;73.02
50933;BME280;36921;49.006;9.292;2023-05-19T06:58:40;99237.16;;;17.32;73.22
50933;BME280;36921;49.006;9.292;2023-05-19T07:01:05;99250.72;;;17.62;70.82
50933;BME280;36921;49.006;9.292;2023-05-19T07:03:31;99241.09;;;17.95;71.99
50933;BME280;36921;49.006;9.292;2023-05-19T07:05:56;99232.59;;;18.77;66.27
50933;BME280;36921;49.006;9.292;2023-05-19T07:08:21;99236.47;;;19.10;64.81
50933;BME280;36921;49.006;9.292;2023-05-19T07:10:46;99226.00;;;19.24;65.05
50933;BME280;36921;49.006;9.292;2023-05-19T07:13:12;99227.31;;;19.21;62.71
50933;BME280;36921;49.006;9.292;2023-05-19T07:15:37;99236.22;;;19.62;61.63
50933;BME280;36921;49.006;9.292;2023-05-19T07:18:02;99231.19;;;20.86;60.77
50933;BME280;36921;49.006;9.292;2023-05-19T07:20:28;99210.78;;;21.94;56.94
50933;BME280;36921;49.006;9.292;2023-05-19T07:22:53;99199.25;;;22.02;54.31
50933;BME280;36921;49.006;9.292;2023-05-19T07:25:18;99225.31;;;22.37;54.56
50933;BME280;36921;49.006;9.292;2023-05-19T07:27:44;99219.41;;;22.13;53.96
50933;BME280;36921;49.006;9.292;2023-05-19T07:30:10;99225.88;;;22.34;53.55
50933;BME280;36921;49.006;9.292;2023-05-19T07:32:35;99219.03;;;20.11;56.26
50933;BME280;36921;49.006;9.292;2023-05-19T07:35:01;99213.28;;;19.01;60.34
50933;BME280;36921;49.006;9.292;2023-05-19T07:37:26;99209.03;;;18.36;63.66
50933;BME280;36921;49.006;9.292;2023-05-19T07:39:52;99214.75;;;18.06;67.40
50933;BME280;36921;49.006;9.292;2023-05-19T07:42:17;99223.47;;;17.67;69.53
50933;BME280;36921;49.006;9.292;2023-05-19T07:44:42;99232.63;;;17.49;72.09
50933;BME280;36921;49.006;9.292;2023-05-19T07:47:07;99208.94;;;16.96;73.49
50933;BME280;36921;49.006;9.292;2023-05-19T07:49:33;99230.66;;;16.79;77.03
50933;BME280;36921;49.006;9.292;2023-05-19T07:51:58;99204.50;;;16.83;78.38
50933;BME280;36921;49.006;9.292;2023-05-19T07:54:23;99211.75;;;16.90;77.74
50933;BME280;36921;49.006;9.292;2023-05-19T07:56:49;99208.31;;;16.82;77.28
50933;BME280;36921;49.006;9.292;2023-05-19T07:59:14;99225.59;;;17.18;76.16
50933;BME280;36921;49.006;9.292;2023-05-19T08:01:40;99208.25;;;17.36;77.87
50933;BME280;36921;49.006;9.292;2023-05-19T08:04:05;99182.78;;;17.47;74.91
50933;BME280;36921;49.006;9.292;2023-05-19T08:06:30;99173.03;;;17.63;73.03
50933;BME280;36921;49.006;9.292;2023-05-19T08:08:56;99206.31;;;18.36;72.07
50933;BME280;36921;49.006;9.292;2023-05-19T08:11:21;99194.69;;;18.29;70.09
50933;BME280;36921;49.006;9.292;2023-05-19T08:13:47;99212.94;;;18.11;70.84
50933;BME280;36921;49.006;9.292;2023-05-19T08:16:15;99186.00;;;18.49;67.91
50933;BME280;36921;49.006;9.292;2023-05-19T08:18:41;99180.69;;;18.13;70.05
50933;BME280;36921;49.006;9.292;2023-05-19T08:21:06;99204.41;;;17.96;70.43
50933;BME280;36921;49.006;9.292;2023-05-19T08:23:32;99207.53;;;18.28;70.27
50933;BME280;36921;49.006;9.292;2023-05-19T08:25:57;99190.53;;;18.26;70.32
50933;BME280;36921;49.006;9.292;2023-05-19T08:28:23;99190.28;;;17.87;71.69
50933;BME280;36921;49.006;9.292;2023-05-19T08:30:49;99190.88;;;17.54;74.22
50933;BME280;36921;49.006;9.292;2023-05-19T08:33:16;99183.75;;;17.06;76.40
50933;BME280;36921;49.006;9.292;2023-05-19T08:35:41;99200.84;;;17.01;77.55
50933;BME280;36921;49.006;9.292;2023-05-19T08:38:07;99185.38;;;16.83;79.76
50933;BME280;36921;49.006;9.292;2023-05-19T08:40:33;99184.31;;;16.96;84.41
50933;BME280;36921;49.006;9.292;2023-05-19T08:42:58;99194.19;;;16.97;79.71
50933;BME280;36921;49.006;9.292;2023-05-19T08:45:25;99179.00;;;16.59;82.67
50933;BME280;36921;49.006;9.292;2023-05-19T08:47:51;99188.50;;;16.69;87.89
50933;BME280;36921;49.006;9.292;2023-05-19T08:50:20;99182.03;;;16.81;85.91
50933;BME280;36921;49.006;9.292;2023-05-19T08:52:54;99199.28;;;16.94;82.42
50933;BME280;36921;49.006;9.292;2023-05-19T08:57:58;99205.38;;;16.96;85.75
50933;BME280;36921;49.006;9.292;2023-05-19T09:00:24;99183.03;;;17.22;86.62
50933;BME280;36921;49.006;9.292;2023-05-19T09:02:50;99182.31;;;17.39;80.19
50933;BME280;36921;49.006;9.292;2023-05-19T09:05:16;99190.50;;;17.62;78.41
50933;BME280;36921;49.006;9.292;2023-05-19T09:07:43;99196.81;;;17.74;79.40
50933;BME280;36921;49.006;9.292;2023-05-19T09:10:09;99183.00;;;17.69;79.08
50933;BME280;36921;49.006;9.292;2023-05-19T09:12:39;99183.28;;;17.80;80.42
50933;BME280;36921;49.006;9.292;2023-05-19T09:15:06;99193.63;;;17.54;76.57
50933;BME280;36921;49.006;9.292;2023-05-19T09:17:33;99175.69;;;17.35;78.02
50933;BME280;36921;49.006;9.292;2023-05-19T09:20:03;99178.00;;;17.78;74.91
50933;BME280;36921;49.006;9.292;2023-05-19T09:22:44;99182.75;;;17.94;74.58
50933;BME280;36921;49.006;9.292;2023-05-19T09:25:18;99181.47;;;17.85;75.46
50933;BME280;36921;49.006;9.292;2023-05-19T09:27:45;99178.00;;;17.90;75.74
50933;BME280;36921;49.006;9.292;2023-05-19T09:30:11;99181.19;;;17.99;73.10
50933;BME280;36921;49.006;9.292;2023-05-19T09:32:37;99186.53;;;18.05;73.27
50933;BME280;36921;49.006;9.292;2023-05-19T09:35:02;99171.28;;;18.09;73.46
50933;BME280;36921;49.006;9.292;2023-05-19T09:37:28;99174.69;;;17.64;74.78
50933;BME280;36921;49.006;9.292;2023-05-19T09:39:53;99184.47;;;17.48;77.90
50933;BME280;36921;49.006;9.292;2023-05-19T09:42:25;99191.22;;;17.34;79.51
50933;BME280;36921;49.006;9.292;2023-05-19T09:45:01;99181.84;;;17.18;78.56
50933;BME280;36921;49.006;9.292;2023-05-19T09:47:32;99193.03;;;17.28;79.77
50933;BME280;36921;49.006;9.292;2023-05-19T09:49:57;99187.91;;;17.56;80.35
50933;BME280;36921;49.006;9.292;2023-05-19T09:52:22;99181.00;;;17.65;77.65
50933;BME280;36921;49.006;9.292;2023-05-19T09:54:48;99184.00;;;17.63;79.64
50933;BME280;36921;49.006;9.292;2023-05-19T09:57:15;99166.47;;;17.88;77.19
50933;BME280;36921;49.006;9.292;2023-05-19T09:59:42;99170.06;;;17.65;76.30
50933;BME280;36921;49.006;9.292;2023-05-19T10:02:14;99177.81;;;17.56;76.47
50933;BME280;36921;49.006;9.292;2023-05-19T10:04:41;99170.88;;;17.77;76.48
50933;BME280;36921;49.006;9.292;2023-05-19T10:07:07;99168.69;;;18.03;76.90
50933;BME280;36921;49.006;9.292;2023-05-19T10:09:35;99176.25;;;18.12;73.61
50933;BME280;36921;49.006;9.292;2023-05-19T10:12:01;99173.63;;;18.17;75.53
50933;BME280;36921;49.006;9.292;2023-05-19T10:14:28;99164.66;;;18.79;75.34
50933;BME280;36921;49.006;9.292;2023-05-19T10:16:55;99167.81;;;19.22;72.92
50933;BME280;36921;49.006;9.292;2023-05-19T10:19:26;99152.53;;;18.92;73.32
50933;BME280;36921;49.006;9.292;2023-05-19T10:21:52;99158.91;;;19.15;72.02
50933;BME280;36921;49.006;9.292;2023-05-19T10:24:18;99161.22;;;19.23;71.14
50933;BME280;36921;49.006;9.292;2023-05-19T10:27:01;99168.63;;;19.22;70.77
50933;BME280;36921;49.006;9.292;2023-05-19T10:29:29;99167.63;;;18.78;71.22
50933;BME280;36921;49.006;9.292;2023-05-19T10:31:58;99149.97;;;18.11;72.38
50933;BME280;36921;49.006;9.292;2023-05-19T10:34:33;99166.88;;;18.08;72.23
50933;BME280;36921;49.006;9.292;2023-05-19T10:37:22;99165.81;;;18.09;72.89
50933;BME280;36921;49.006;9.292;2023-05-19T10:39:51;99158.28;;;17.64;77.45
50933;BME280;36921;49.006;9.292;2023-05-19T10:42:37;99148.44;;;17.04;77.78
50933;BME280;36921;49.006;9.292;2023-05-19T10:45:19;99157.47;;;17.05;82.27
50933;BME280;36921;49.006;9.292;2023-05-19T10:47:45;99159.94;;;16.95;83.01
50933;BME280;36921;49.006;9.292;2023-05-19T10:50:10;99170.91;;;17.18;82.71
50933;BME280;36921;49.006;9.292;2023-05-19T10:52:37;99166.16;;;17.25;86.61
50933;BME280;36921;49.006;9.292;2023-05-19T10:55:03;99162.84;;;17.35;81.84
50933;BME280;36921;49.006;9.292;2023-05-19T10:57:29;99160.75;;;17.89;80.21
50933;BME280;36921;49.006;9.292;2023-05-19T10:59:56;99171.78;;;18.06;76.68
50933;BME280;36921;49.006;9.292;2023-05-19T11:05:12;99151.19;;;18.78;75.82
50933;BME280;36921;49.006;9.292;2023-05-19T11:07:42;99153.97;;;19.51;71.98
50933;BME280;36921;49.006;9.292;2023-05-19T11:10:09;99145.28;;;19.59;69.29
50933;BME280;36921;49.006;9.292;2023-05-19T11:12:43;99139.63;;;19.10;67.92
50933;BME280;36921;49.006;9.292;2023-05-19T11:15:13;99153.44;;;18.98;71.12
50933;BME280;36921;49.006;9.292;2023-05-19T11:17:40;99148.81;;;18.53;72.78
50933;BME280;36921;49.006;9.292;2023-05-19T11:20:19;99147.75;;;18.25;74.69
50933;BME280;36921;49.006;9.292;2023-05-19T11:23:02;99149.44;;;17.98;80.38
50933;BME280;36921;49.006;9.292;2023-05-19T11:28:06;99144.19;;;17.32;80.95
50933;BME280;36921;49.006;9.292;2023-05-19T11:30:31;99139.38;;;17.51;86.11
50933;BME280;36921;49.006;9.292;2023-05-19T11:32:57;99122.88;;;17.98;85.18
50933;BME280;36921;49.006;9.292;2023-05-19T11:35:23;99115.44;;;18.73;82.14
50933;BME280;36921;49.006;9.292;2023-05-19T11:37:49;99138.44;;;19.39;79.25
50933;BME280;36921;49.006;9.292;2023-05-19T11:40:20;99124.50;;;19.63;75.06
50933;BME280;36921;49.006;9.292;2023-05-19T11:42:45;99142.78;;;19.74;76.00
50933;BME280;36921;49.006;9.292;2023-05-19T11:45:10;99123.34;;;20.03;73.97
50933;BME280;36921;49.006;9.292;2023-05-19T11:47:36;99123.03;;;19.38;74.68
50933;BME280;36921;49.006;9.292;2023-05-19T11:50:02;99118.06;;;18.79;76.88
50933;BME280;36921;49.006;9.292;2023-05-19T11:52:27;99134.63;;;18.56;78.82
50933;BME280;36921;49.006;9.292;2023-05-19T11:54:53;99141.41;;;18.08;86.81
50933;BME280;36921;49.006;9.292;2023-05-19T11:57:18;99132.28;;;17.79;94.33
50933;BME280;36921;49.006;9.292;2023-05-19T11:59:43;99123.09;;;17.56;93.50
50933;BME280;36921;49.006;9.292;2023-05-19T12:04:37;99139.88;;;17.48;100.00
50933;BME280;36921;49.006;9.292;2023-05-19T12:07:03;99134.84;;;17.57;100.00
50933;BME280;36921;49.006;9.292;2023-05-19T12:09:28;99134.25;;;17.55;100.00
50933;BME280;36921;49.006;9.292;2023-05-19T12:11:54;99133.66;;;17.64;100.00
50933;BME280;36921;49.006;9.292;2023-05-19T12:14:19;99139.34;;;17.74;100.00
50933;BME280;36921;49.006;9.292;2023-05-19T12:16:44;99131.63;;;17.71;97.53
50933;BME280;36921;49.006;9.292;2023-05-19T12:19:09;99117.59;;;17.80;99.35
50933;BME280;36921;49.006;9.292;2023-05-19T12:21:35;99108.66;;;17.84;93.92
50933;BME280;36921;49.006;9.292;2023-05-19T12:24:00;99128.03;;;17.83;91.99
50933;BME280;36921;49.006;9.292;2023-05-19T12:26:26;99130.41;;;18.20;92.92
50933;BME280;36921;49.006;9.292;2023-05-19T12:28:52;99131.78;;;18.05;91.01
50933;BME280;36921;49.006;9.292;2023-05-19T12:31:18;99128.34;;;17.98;89.81
50933;BME280;36921;49.006;9.292;2023-05-19T12:33:44;99128.72;;;17.78;88.78
50933;BME280;36921;49.006;9.292;2023-05-19T12:36:12;99124.72;;;17.57;93.07
50933;BME280;36921;49.006;9.292;2023-05-19T12:38:38;99136.09;;;17.37;93.95
50933;BME280;36921;49.006;9.292;2023-05-19T12:41:04;99128.13;;;17.00;100.00
50933;BME280;36921;49.006;9.292;2023-05-19T12:43:31;99130.63;;;17.02;100.00
50933;BME280;36921;49.006;9.292;2023-05-19T12:45:57;99133.69;;;16.94;100.00
50933;BME280;36921;49.006;9.292;2023-05-19T12:48:22;99132.19;;;16.98;100.00
50933;BME280;36921;49.006;9.292;2023-05-19T12:50:50;99115.63;;;16.81;100.00
50933;BME280;36921;49.006;9.292;2023-05-19T12:53:16;99144.03;;;16.92;100.00
50933;BME280;36921;49.006;9.292;2023-05-19T12:55:43;99124.91;;;17.03;100.00
50933;BME280;36921;49.006;9.292;2023-05-19T12:58:14;99145.94;;;17.26;100.00
50933;BME280;36921;49.006;9.292;2023-05-19T13:00:41;99137.53;;;17.16;100.00
50933;BME280;36921;49.006;9.292;2023-05-19T13:03:13;99137.28;;;17.18;97.12
50933;BME280;36921;49.006;9.292;2023-05-19T13:05:40;99135.59;;;17.05;96.78
50933;BME280;36921;49.006;9.292;2023-05-19T13:08:09;99136.78;;;16.97;95.32
50933;BME280;36921;49.006;9.292;2023-05-19T13:10:37;99108.63;;;17.20;93.05
50933;BME280;36921;49.006;9.292;2023-05-19T13:13:03;99125.94;;;17.49;91.49
50933;BME280;36921;49.006;9.292;2023-05-19T13:15:31;99117.88;;;17.43;90.58
50933;BME280;36921;49.006;9.292;2023-05-19T13:17:59;99136.53;;;17.46;92.38
50933;BME280;36921;49.006;9.292;2023-05-19T13:20:25;99137.41;;;17.35;90.33
50933;BME280;36921;49.006;9.292;2023-05-19T13:22:50;99119.44;;;17.15;91.86
50933;BME280;36921;49.006;9.292;2023-05-19T13:25:16;99133.47;;;17.19;93.77
50933;BME280;36921;49.006;9.292;2023-05-19T13:27:43;99120.88;;;17.06;99.16